createdAt,value
2022-08-24T00:00:50.758Z,101072.25
2022-08-24T00:05:53.804Z,101075.44
2022-08-24T00:10:55.673Z,101071.69
2022-08-24T00:15:58.096Z,101072.94
2022-08-24T00:21:02.386Z,101072.66
2022-08-24T00:26:05.653Z,101081.88
2022-08-24T00:31:08.117Z,101085.28
2022-08-24T00:36:10.209Z,101084.50
2022-08-24T00:41:14.944Z,101081.34
2022-08-24T00:46:23.566Z,101082.81
2022-08-24T00:51:36.133Z,101080.13
2022-08-24T00:56:47.220Z,101082.72
2022-08-24T01:01:51.461Z,101082.94
2022-08-24T01:06:53.475Z,101082.47
2022-08-24T01:11:56.935Z,101083.41
2022-08-24T01:17:17.436Z,101080.84
2022-08-24T01:22:46.731Z,101078.28
2022-08-24T01:27:50.590Z,101080.34
2022-08-24T01:33:01.101Z,101079.31
2022-08-24T01:38:07.840Z,101080.00
2022-08-24T01:43:11.304Z,101083.75
2022-08-24T01:48:15.545Z,101085.13
2022-08-24T01:53:26.378Z,101090.78
2022-08-24T01:58:28.330Z,101095.78
2022-08-24T02:03:30.153Z,101093.38
2022-08-24T02:08:34.571Z,101091.34
2022-08-24T02:13:38.703Z,101094.38
2022-08-24T02:18:41.576Z,101082.22
2022-08-24T02:23:44.333Z,101079.81
2022-08-24T02:28:46.154Z,101091.13
2022-08-24T02:33:48.015Z,101090.00
2022-08-24T02:38:50.216Z,101080.91
2022-08-24T02:43:53.699Z,101083.75
2022-08-24T02:48:57.632Z,101083.75
2022-08-24T02:54:14.531Z,101082.03
2022-08-24T02:59:17.469Z,101084.47
2022-08-24T03:04:20.865Z,101085.97
2022-08-24T03:09:23.553Z,101088.53
2022-08-24T03:14:25.853Z,101094.78
2022-08-24T03:19:27.829Z,101099.06
2022-08-24T03:24:29.896Z,101096.75
2022-08-24T03:29:33.776Z,101096.22
2022-08-24T03:34:35.917Z,101093.41
2022-08-24T03:39:37.801Z,101084.13
2022-08-24T03:44:39.906Z,101088.25
2022-08-24T03:49:41.790Z,101087.81
2022-08-24T03:54:43.716Z,101090.22
2022-08-24T03:59:46.814Z,101086.69
2022-08-24T04:04:49.395Z,101078.88
2022-08-24T04:09:51.547Z,101082.41
2022-08-24T04:14:56.143Z,101083.28
2022-08-24T04:19:58.305Z,101082.28
2022-08-24T04:25:00.318Z,101090.78
2022-08-24T04:30:04.492Z,101094.19
2022-08-24T04:35:06.969Z,101103.25
2022-08-24T04:40:09.886Z,101097.88
2022-08-24T04:45:12.720Z,101095.06
2022-08-24T04:50:14.455Z,101105.91
2022-08-24T04:55:18.232Z,101117.47
2022-08-24T05:00:20.482Z,101111.69
2022-08-24T05:05:22.362Z,101117.06
2022-08-24T05:10:24.611Z,101117.59
2022-08-24T05:15:29.385Z,101119.31
2022-08-24T05:20:31.474Z,101130.84
2022-08-24T05:25:33.472Z,101131.06
2022-08-24T05:30:38.305Z,101139.88
2022-08-24T05:35:44.658Z,101145.28
2022-08-24T05:40:46.919Z,101141.84
2022-08-24T05:45:48.828Z,101145.28
2022-08-24T05:50:56.603Z,101137.19
2022-08-24T05:55:58.439Z,101136.22
2022-08-24T06:01:11.386Z,101139.44
2022-08-24T06:06:15.146Z,101139.66
2022-08-24T06:11:43.425Z,101144.31
2022-08-24T06:16:47.549Z,101147.25
2022-08-24T06:21:51.910Z,101142.97
2022-08-24T06:27:12.087Z,101141.63
2022-08-24T06:32:14.203Z,101137.19
2022-08-24T06:37:16.690Z,101143.28
2022-08-24T06:42:19.279Z,101138.63
2022-08-24T06:47:22.329Z,101140.09
2022-08-24T06:52:24.279Z,101149.94
2022-08-24T06:57:26.261Z,101142.69
2022-08-24T07:02:28.070Z,101134.72
2022-08-24T07:07:29.945Z,101145.84
2022-08-24T07:12:31.755Z,101158.97
2022-08-24T07:17:33.593Z,101159.75
2022-08-24T07:22:35.309Z,101167.00
2022-08-24T07:27:37.174Z,101163.94
2022-08-24T07:32:39.581Z,101167.34
2022-08-24T07:37:41.796Z,101167.34
2022-08-24T07:42:47.532Z,101177.91
2022-08-24T07:47:55.493Z,101176.44
2022-08-24T07:52:57.885Z,101181.00
2022-08-24T07:58:00.472Z,101182.56
2022-08-24T08:03:03.534Z,101177.53
2022-08-24T08:08:05.852Z,101185.25
2022-08-24T08:13:08.483Z,101187.69
2022-08-24T08:18:12.247Z,101190.38
2022-08-24T08:23:36.998Z,101197.13
2022-08-24T08:28:39.258Z,101206.19
2022-08-24T08:33:42.071Z,101207.03
2022-08-24T08:38:44.603Z,101198.94
2022-08-24T08:44:01.261Z,101206.41
2022-08-24T08:49:17.198Z,101210.00
2022-08-24T08:54:34.044Z,101193.53
2022-08-24T08:59:41.660Z,101198.81
2022-08-24T09:05:04.957Z,101201.63
2022-08-24T09:10:18.503Z,101192.19
2022-08-24T09:15:29.369Z,101199.19
2022-08-24T09:20:49.927Z,101194.53
2022-08-24T09:26:09.691Z,101195.38
2022-08-24T09:31:51.816Z,101187.75
2022-08-24T09:37:01.925Z,101195.00
2022-08-24T09:42:18.912Z,101195.59
2022-08-24T09:47:24.029Z,101196.97
2022-08-24T09:52:45.017Z,101190.59
2022-08-24T09:58:04.949Z,101188.66
2022-08-24T10:03:42.325Z,101184.09
2022-08-24T10:09:00.094Z,101179.88
2022-08-24T10:14:16.455Z,101173.63
2022-08-24T10:19:39.745Z,101166.22
2022-08-24T10:25:10.235Z,101155.44
2022-08-24T10:30:55.644Z,101160.50
2022-08-24T10:36:24.618Z,101152.63
2022-08-24T10:41:41.919Z,101150.38
2022-08-24T10:46:58.955Z,101155.53
2022-08-24T10:52:25.879Z,101144.69
2022-08-24T10:57:39.547Z,101140.31
2022-08-24T11:02:45.897Z,101143.22
2022-08-24T11:07:58.633Z,101135.22
2022-08-24T11:13:22.394Z,101126.56
2022-08-24T11:18:25.234Z,101114.28
2022-08-24T11:23:36.858Z,101119.41
2022-08-24T11:28:52.132Z,101117.00
2022-08-24T11:34:00.685Z,101121.34
2022-08-24T11:39:22.601Z,101113.44
2022-08-24T11:44:42.638Z,101107.31
2022-08-24T11:50:06.924Z,101099.16
2022-08-24T11:55:26.319Z,101103.50
2022-08-24T12:00:54.840Z,101102.47
2022-08-24T12:06:04.023Z,101097.47
2022-08-24T12:11:27.427Z,101095.13
2022-08-24T12:16:38.449Z,101091.38
2022-08-24T12:21:45.537Z,101084.53
2022-08-24T12:27:07.854Z,101080.63
2022-08-24T12:32:24.202Z,101080.63
2022-08-24T12:37:35.095Z,101083.31
2022-08-24T12:42:52.247Z,101080.50
2022-08-24T12:48:27.411Z,101083.06
2022-08-24T12:53:50.605Z,101078.97
2022-08-24T12:59:25.021Z,101074.56
2022-08-24T13:04:34.797Z,101080.09
2022-08-24T13:09:44.239Z,101073.91
2022-08-24T13:14:51.600Z,101070.03
2022-08-24T13:20:27.043Z,101069.06
2022-08-24T13:25:53.269Z,101063.97
2022-08-24T13:31:14.734Z,101066.81
2022-08-24T13:36:31.843Z,101054.88
2022-08-24T13:42:07.799Z,101057.13
2022-08-24T13:47:47.047Z,101055.88
2022-08-24T13:53:04.318Z,101047.84
2022-08-24T13:58:43.510Z,101047.41
2022-08-24T14:03:51.989Z,101037.47
2022-08-24T14:09:18.353Z,101033.63
2022-08-24T14:14:51.521Z,101032.97
2022-08-24T14:20:09.239Z,101038.97
2022-08-24T14:25:23.564Z,101020.31
2022-08-24T14:30:25.399Z,101020.06
2022-08-24T14:35:39.993Z,101019.06
2022-08-24T14:41:09.521Z,101019.06
2022-08-24T14:46:34.179Z,101011.69
2022-08-24T14:52:00.428Z,101010.84
2022-08-24T14:57:28.195Z,101004.28
2022-08-24T15:02:49.081Z,100997.94
2022-08-24T15:08:34.969Z,100989.53
2022-08-24T15:13:56.648Z,100990.69
2022-08-24T15:19:27.207Z,100994.94
2022-08-24T15:24:52.814Z,100980.16
2022-08-24T15:29:58.463Z,100975.34
2022-08-24T15:35:00.462Z,100975.78
2022-08-24T15:40:06.184Z,100972.56
2022-08-24T15:45:10.620Z,100965.41
2022-08-24T15:50:26.545Z,100963.28
2022-08-24T15:55:41.671Z,100966.41
2022-08-24T16:01:02.399Z,100962.44
2022-08-24T16:06:21.119Z,100963.59
2022-08-24T16:11:30.345Z,100967.84
2022-08-24T16:16:39.481Z,100956.38
2022-08-24T16:22:01.506Z,100968.88
2022-08-24T16:27:13.794Z,100950.94
2022-08-24T16:32:22.987Z,100958.31
2022-08-24T16:37:42.007Z,100956.59
2022-08-24T16:42:43.943Z,100956.63
2022-08-24T16:47:47.255Z,100946.69
2022-08-24T16:52:49.655Z,100956.47
2022-08-24T16:57:51.442Z,100950.31
2022-08-24T17:02:53.529Z,100950.22
2022-08-24T17:07:55.903Z,100951.25
2022-08-24T17:12:58.752Z,100948.72
2022-08-24T17:18:03.520Z,100952.72
2022-08-24T17:23:06.074Z,100957.22
2022-08-24T17:28:12.924Z,100954.41
2022-08-24T17:33:15.031Z,100952.72
2022-08-24T17:38:17.369Z,100956.25
2022-08-24T17:43:19.342Z,100958.41
2022-08-24T17:48:26.076Z,100960.97
2022-08-24T17:53:28.065Z,100961.06
2022-08-24T17:58:53.370Z,100966.50
2022-08-24T18:03:55.291Z,100956.41
2022-08-24T18:09:03.054Z,100968.19
2022-08-24T18:14:05.000Z,100961.66
2022-08-24T18:19:07.424Z,100971.63
2022-08-24T18:24:09.402Z,100973.03
2022-08-24T18:29:22.035Z,100979.16
2022-08-24T18:34:24.556Z,100986.13
2022-08-24T18:39:26.456Z,100982.28
2022-08-24T18:44:31.748Z,100999.88
2022-08-24T18:49:35.766Z,100997.91
2022-08-24T18:54:41.591Z,100998.31
2022-08-24T18:59:43.527Z,101001.03
2022-08-24T19:04:47.976Z,101003.84
2022-08-24T19:09:51.368Z,101003.25
2022-08-24T19:14:57.571Z,101011.22
2022-08-24T19:19:59.881Z,101004.81
2022-08-24T19:25:03.883Z,101010.94
2022-08-24T19:30:06.321Z,101012.06
2022-08-24T19:35:10.224Z,101007.06
2022-08-24T19:40:12.306Z,101009.19
2022-08-24T19:45:35.253Z,101015.44
2022-08-24T19:50:38.787Z,101012.47
2022-08-24T19:55:40.811Z,101017.16
2022-08-24T20:00:48.331Z,101012.16
2022-08-24T20:05:54.019Z,101009.47
2022-08-24T20:10:59.192Z,101012.53
2022-08-24T20:16:01.838Z,101008.34
2022-08-24T20:21:04.136Z,101006.19
2022-08-24T20:26:08.317Z,101006.78
2022-08-24T20:31:10.639Z,101007.63
2022-08-24T20:36:23.454Z,101004.91
2022-08-24T20:41:27.675Z,101000.66
2022-08-24T20:46:30.821Z,101007.16
2022-08-24T20:51:32.914Z,101009.13
2022-08-24T20:56:39.403Z,101002.47
2022-08-24T21:01:43.172Z,101011.44
2022-08-24T21:06:47.905Z,101008.34
2022-08-24T21:11:52.681Z,101008.75
2022-08-24T21:16:57.701Z,101007.50
2022-08-24T21:21:59.699Z,101005.88
2022-08-24T21:27:01.744Z,101011.03
2022-08-24T21:32:23.211Z,101012.41
2022-08-24T21:37:25.338Z,101008.59
2022-08-24T21:42:27.494Z,101006.59
2022-08-24T21:47:29.498Z,101002.94
2022-08-24T21:52:31.345Z,101010.91
2022-08-24T21:57:33.315Z,101016.56
2022-08-24T22:02:35.323Z,101019.97
2022-08-24T22:07:37.438Z,101021.66
2022-08-24T22:12:41.775Z,101014.59
2022-08-24T22:17:45.053Z,101009.47
2022-08-24T22:22:47.466Z,101008.59
2022-08-24T22:27:49.271Z,101006.06
2022-08-24T22:32:51.215Z,101009.19
2022-08-24T22:37:53.039Z,101011.03
2022-08-24T22:42:55.071Z,101005.50
2022-08-24T22:47:57.073Z,101000.25
2022-08-24T22:52:59.355Z,101001.69
2022-08-24T22:58:02.086Z,100997.25
2022-08-24T23:03:04.415Z,100999.53
2022-08-24T23:08:06.432Z,101003.91
2022-08-24T23:13:08.505Z,100996.41
2022-08-24T23:18:30.486Z,101005.88
2022-08-24T23:23:32.388Z,101004.50
2022-08-24T23:28:34.593Z,101002.66
2022-08-24T23:33:38.191Z,100998.84
2022-08-24T23:38:41.928Z,100997.25
2022-08-24T23:43:44.200Z,101000.81
2022-08-24T23:48:55.134Z,100995.28
2022-08-24T23:54:01.860Z,100997.00
2022-08-24T23:59:14.091Z,101004.25
